sensor_id;sensor_type;location;lat;lon;timestamp;P1;durP1;ratioP1;P2;durP2;ratioP2
19828;SDS011;10075;50.924;4.396;2023-01-05T00:01:48;29.30;;;6.10;;
19828;SDS011;10075;50.924;4.396;2023-01-05T00:04:15;27.80;;;4.97;;
19828;SDS011;10075;50.924;4.396;2023-01-05T00:06:42;28.10;;;5.63;;
19828;SDS011;10075;50.924;4.396;2023-01-05T00:09:09;22.97;;;5.43;;
19828;SDS011;10075;50.924;4.396;2023-01-05T00:11:38;29.10;;;5.83;;
19828;SDS011;10075;50.924;4.396;2023-01-05T00:14:25;25.00;;;4.60;;
19828;SDS011;10075;50.924;4.396;2023-01-05T00:17:12;35.00;;;5.87;;
19828;SDS011;10075;50.924;4.396;2023-01-05T00:19:58;33.60;;;5.43;;
19828;SDS011;10075;50.924;4.396;2023-01-05T00:22:44;35.57;;;6.50;;
19828;SDS011;10075;50.924;4.396;2023-01-05T00:25:13;32.03;;;5.17;;
19828;SDS011;10075;50.924;4.396;2023-01-05T00:27:41;32.50;;;6.67;;
19828;SDS011;10075;50.924;4.396;2023-01-05T00:30:12;28.97;;;5.60;;
19828;SDS011;10075;50.924;4.396;2023-01-05T00:32:41;26.00;;;4.93;;
19828;SDS011;10075;50.924;4.396;2023-01-05T00:35:09;27.13;;;5.93;;
19828;SDS011;10075;50.924;4.396;2023-01-05T00:37:38;35.53;;;6.73;;
19828;SDS011;10075;50.924;4.396;2023-01-05T00:40:05;25.83;;;5.03;;
19828;SDS011;10075;50.924;4.396;2023-01-05T00:42:35;22.13;;;4.90;;
19828;SDS011;10075;50.924;4.396;2023-01-05T00:45:04;30.20;;;6.00;;
19828;SDS011;10075;50.924;4.396;2023-01-05T00:47:34;27.57;;;6.03;;
19828;SDS011;10075;50.924;4.396;2023-01-05T00:50:02;27.97;;;5.43;;
19828;SDS011;10075;50.924;4.396;2023-01-05T00:52:29;26.77;;;5.60;;
19828;SDS011;10075;50.924;4.396;2023-01-05T00:54:56;22.10;;;4.90;;
19828;SDS011;10075;50.924;4.396;2023-01-05T00:57:23;28.73;;;5.37;;
19828;SDS011;10075;50.924;4.396;2023-01-05T00:59:50;34.60;;;6.10;;
19828;SDS011;10075;50.924;4.396;2023-01-05T01:02:17;27.50;;;5.57;;
19828;SDS011;10075;50.924;4.396;2023-01-05T01:04:46;34.17;;;6.37;;
19828;SDS011;10075;50.924;4.396;2023-01-05T01:07:13;29.63;;;6.23;;
19828;SDS011;10075;50.924;4.396;2023-01-05T01:09:40;36.70;;;6.43;;
19828;SDS011;10075;50.924;4.396;2023-01-05T01:12:07;34.13;;;5.60;;
19828;SDS011;10075;50.924;4.396;2023-01-05T01:14:34;28.97;;;5.37;;
19828;SDS011;10075;50.924;4.396;2023-01-05T01:17:01;32.37;;;5.87;;
19828;SDS011;10075;50.924;4.396;2023-01-05T01:19:28;25.90;;;5.07;;
19828;SDS011;10075;50.924;4.396;2023-01-05T01:21:57;31.30;;;5.57;;
19828;SDS011;10075;50.924;4.396;2023-01-05T01:24:26;28.43;;;5.47;;
19828;SDS011;10075;50.924;4.396;2023-01-05T01:26:53;39.13;;;5.27;;
19828;SDS011;10075;50.924;4.396;2023-01-05T01:29:21;27.97;;;5.30;;
19828;SDS011;10075;50.924;4.396;2023-01-05T01:31:49;34.57;;;6.70;;
19828;SDS011;10075;50.924;4.396;2023-01-05T01:34:17;32.67;;;6.43;;
19828;SDS011;10075;50.924;4.396;2023-01-05T01:36:45;31.53;;;6.07;;
19828;SDS011;10075;50.924;4.396;2023-01-05T01:39:16;26.03;;;5.07;;
19828;SDS011;10075;50.924;4.396;2023-01-05T01:41:43;34.77;;;5.77;;
19828;SDS011;10075;50.924;4.396;2023-01-05T01:47:27;26.73;;;5.57;;
19828;SDS011;10075;50.924;4.396;2023-01-05T01:50:00;32.53;;;6.00;;
19828;SDS011;10075;50.924;4.396;2023-01-05T01:52:29;37.97;;;6.20;;
19828;SDS011;10075;50.924;4.396;2023-01-05T01:54:59;33.70;;;6.00;;
19828;SDS011;10075;50.924;4.396;2023-01-05T01:57:29;31.47;;;5.07;;
19828;SDS011;10075;50.924;4.396;2023-01-05T01:59:57;33.93;;;6.10;;
19828;SDS011;10075;50.924;4.396;2023-01-05T02:02:26;35.77;;;5.63;;
19828;SDS011;10075;50.924;4.396;2023-01-05T02:04:53;30.17;;;6.27;;
19828;SDS011;10075;50.924;4.396;2023-01-05T02:07:22;27.30;;;4.77;;
19828;SDS011;10075;50.924;4.396;2023-01-05T02:09:51;33.53;;;6.50;;
19828;SDS011;10075;50.924;4.396;2023-01-05T02:12:25;28.27;;;5.47;;
19828;SDS011;10075;50.924;4.396;2023-01-05T02:15:03;29.47;;;5.40;;
19828;SDS011;10075;50.924;4.396;2023-01-05T02:17:45;32.83;;;5.33;;
19828;SDS011;10075;50.924;4.396;2023-01-05T02:23:30;37.80;;;6.57;;
19828;SDS011;10075;50.924;4.396;2023-01-05T02:26:34;40.30;;;5.97;;
19828;SDS011;10075;50.924;4.396;2023-01-05T02:29:43;36.07;;;7.27;;
19828;SDS011;10075;50.924;4.396;2023-01-05T02:32:38;26.67;;;4.63;;
19828;SDS011;10075;50.924;4.396;2023-01-05T02:35:09;28.97;;;5.07;;
19828;SDS011;10075;50.924;4.396;2023-01-05T02:37:43;34.37;;;6.73;;
19828;SDS011;10075;50.924;4.396;2023-01-05T02:40:14;37.83;;;5.80;;
19828;SDS011;10075;50.924;4.396;2023-01-05T02:42:46;35.17;;;6.63;;
19828;SDS011;10075;50.924;4.396;2023-01-05T02:45:16;35.33;;;7.40;;
19828;SDS011;10075;50.924;4.396;2023-01-05T02:47:45;32.03;;;6.23;;
19828;SDS011;10075;50.924;4.396;2023-01-05T02:50:13;34.97;;;5.40;;
19828;SDS011;10075;50.924;4.396;2023-01-05T02:52:45;31.97;;;6.40;;
19828;SDS011;10075;50.924;4.396;2023-01-05T02:55:22;39.00;;;6.93;;
19828;SDS011;10075;50.924;4.396;2023-01-05T02:57:54;27.20;;;5.50;;
19828;SDS011;10075;50.924;4.396;2023-01-05T03:00:24;34.43;;;5.57;;
19828;SDS011;10075;50.924;4.396;2023-01-05T03:02:58;35.27;;;5.87;;
19828;SDS011;10075;50.924;4.396;2023-01-05T03:05:28;32.90;;;5.87;;
19828;SDS011;10075;50.924;4.396;2023-01-05T03:07:59;29.53;;;5.33;;
19828;SDS011;10075;50.924;4.396;2023-01-05T03:10:51;38.27;;;6.43;;
19828;SDS011;10075;50.924;4.396;2023-01-05T03:13:45;30.47;;;5.67;;
19828;SDS011;10075;50.924;4.396;2023-01-05T03:16:19;39.37;;;6.17;;
19828;SDS011;10075;50.924;4.396;2023-01-05T03:18:52;40.53;;;7.37;;
19828;SDS011;10075;50.924;4.396;2023-01-05T03:21:39;30.70;;;5.17;;
19828;SDS011;10075;50.924;4.396;2023-01-05T03:24:24;34.27;;;5.90;;
19828;SDS011;10075;50.924;4.396;2023-01-05T03:27:09;32.37;;;6.40;;
19828;SDS011;10075;50.924;4.396;2023-01-05T03:29:54;26.37;;;5.60;;
19828;SDS011;10075;50.924;4.396;2023-01-05T03:32:41;34.93;;;6.00;;
19828;SDS011;10075;50.924;4.396;2023-01-05T03:35:33;20.97;;;5.13;;
19828;SDS011;10075;50.924;4.396;2023-01-05T03:38:08;28.50;;;4.70;;
19828;SDS011;10075;50.924;4.396;2023-01-05T03:40:39;21.90;;;5.53;;
19828;SDS011;10075;50.924;4.396;2023-01-05T03:43:08;31.30;;;6.30;;
19828;SDS011;10075;50.924;4.396;2023-01-05T03:45:38;29.90;;;6.17;;
19828;SDS011;10075;50.924;4.396;2023-01-05T03:48:07;34.97;;;6.03;;
19828;SDS011;10075;50.924;4.396;2023-01-05T03:50:35;37.30;;;7.00;;
19828;SDS011;10075;50.924;4.396;2023-01-05T03:53:02;35.13;;;6.00;;
19828;SDS011;10075;50.924;4.396;2023-01-05T03:55:31;30.60;;;5.67;;
19828;SDS011;10075;50.924;4.396;2023-01-05T03:57:59;32.13;;;5.97;;
19828;SDS011;10075;50.924;4.396;2023-01-05T04:00:26;29.27;;;5.07;;
19828;SDS011;10075;50.924;4.396;2023-01-05T04:02:53;28.33;;;5.60;;
19828;SDS011;10075;50.924;4.396;2023-01-05T04:05:20;40.83;;;6.90;;
19828;SDS011;10075;50.924;4.396;2023-01-05T04:07:48;22.43;;;4.57;;
19828;SDS011;10075;50.924;4.396;2023-01-05T04:10:16;29.77;;;5.37;;
19828;SDS011;10075;50.924;4.396;2023-01-05T04:12:43;28.93;;;6.00;;
19828;SDS011;10075;50.924;4.396;2023-01-05T04:15:12;39.10;;;6.67;;
19828;SDS011;10075;50.924;4.396;2023-01-05T04:17:39;25.57;;;5.53;;
19828;SDS011;10075;50.924;4.396;2023-01-05T04:20:06;33.87;;;5.63;;
19828;SDS011;10075;50.924;4.396;2023-01-05T04:22:33;38.60;;;5.87;;
19828;SDS011;10075;50.924;4.396;2023-01-05T04:25:02;30.03;;;6.33;;
19828;SDS011;10075;50.924;4.396;2023-01-05T04:27:29;29.37;;;5.03;;
19828;SDS011;10075;50.924;4.396;2023-01-05T04:29:56;31.97;;;6.13;;
19828;SDS011;10075;50.924;4.396;2023-01-05T04:32:23;33.93;;;5.50;;
19828;SDS011;10075;50.924;4.396;2023-01-05T04:34:50;36.40;;;6.80;;
19828;SDS011;10075;50.924;4.396;2023-01-05T04:37:17;30.97;;;5.90;;
19828;SDS011;10075;50.924;4.396;2023-01-05T04:39:44;30.27;;;5.63;;
19828;SDS011;10075;50.924;4.396;2023-01-05T04:42:13;34.43;;;5.73;;
19828;SDS011;10075;50.924;4.396;2023-01-05T04:44:40;35.70;;;6.33;;
19828;SDS011;10075;50.924;4.396;2023-01-05T04:47:07;36.40;;;6.07;;
19828;SDS011;10075;50.924;4.396;2023-01-05T04:49:34;34.00;;;5.93;;
19828;SDS011;10075;50.924;4.396;2023-01-05T04:52:01;32.03;;;6.17;;
19828;SDS011;10075;50.924;4.396;2023-01-05T04:54:29;33.03;;;6.37;;
19828;SDS011;10075;50.924;4.396;2023-01-05T04:56:56;27.10;;;6.27;;
19828;SDS011;10075;50.924;4.396;2023-01-05T04:59:24;32.70;;;6.67;;
19828;SDS011;10075;50.924;4.396;2023-01-05T05:01:51;32.93;;;6.23;;
19828;SDS011;10075;50.924;4.396;2023-01-05T05:04:18;26.03;;;5.60;;
19828;SDS011;10075;50.924;4.396;2023-01-05T05:06:45;32.20;;;5.23;;
19828;SDS011;10075;50.924;4.396;2023-01-05T05:09:12;29.90;;;5.43;;
19828;SDS011;10075;50.924;4.396;2023-01-05T05:11:39;26.50;;;5.90;;
19828;SDS011;10075;50.924;4.396;2023-01-05T05:14:06;28.97;;;6.23;;
19828;SDS011;10075;50.924;4.396;2023-01-05T05:16:35;33.53;;;6.47;;
19828;SDS011;10075;50.924;4.396;2023-01-05T05:19:02;34.57;;;5.90;;
19828;SDS011;10075;50.924;4.396;2023-01-05T05:21:29;33.07;;;6.50;;
19828;SDS011;10075;50.924;4.396;2023-01-05T05:23:56;32.47;;;6.43;;
19828;SDS011;10075;50.924;4.396;2023-01-05T05:26:23;35.07;;;6.20;;
19828;SDS011;10075;50.924;4.396;2023-01-05T05:28:50;41.40;;;5.73;;
19828;SDS011;10075;50.924;4.396;2023-01-05T05:31:17;29.63;;;6.30;;
19828;SDS011;10075;50.924;4.396;2023-01-05T05:33:45;35.57;;;5.97;;
19828;SDS011;10075;50.924;4.396;2023-01-05T05:36:12;32.30;;;5.80;;
19828;SDS011;10075;50.924;4.396;2023-01-05T05:38:39;35.90;;;6.30;;
19828;SDS011;10075;50.924;4.396;2023-01-05T05:41:06;33.47;;;5.30;;
19828;SDS011;10075;50.924;4.396;2023-01-05T05:43:33;33.63;;;6.73;;
19828;SDS011;10075;50.924;4.396;2023-01-05T05:46:01;31.67;;;5.37;;
19828;SDS011;10075;50.924;4.396;2023-01-05T05:48:28;38.23;;;6.67;;
19828;SDS011;10075;50.924;4.396;2023-01-05T05:50:56;27.17;;;5.40;;
19828;SDS011;10075;50.924;4.396;2023-01-05T05:53:23;38.90;;;6.43;;
19828;SDS011;10075;50.924;4.396;2023-01-05T05:55:51;39.00;;;6.27;;
19828;SDS011;10075;50.924;4.396;2023-01-05T05:58:18;36.87;;;6.53;;
19828;SDS011;10075;50.924;4.396;2023-01-05T06:00:45;30.70;;;5.77;;
19828;SDS011;10075;50.924;4.396;2023-01-05T06:03:13;31.67;;;5.73;;
19828;SDS011;10075;50.924;4.396;2023-01-05T06:05:40;33.87;;;6.67;;
19828;SDS011;10075;50.924;4.396;2023-01-05T06:08:08;37.40;;;6.40;;
19828;SDS011;10075;50.924;4.396;2023-01-05T06:10:35;33.70;;;6.27;;
19828;SDS011;10075;50.924;4.396;2023-01-05T06:13:03;38.27;;;6.27;;
19828;SDS011;10075;50.924;4.396;2023-01-05T06:15:30;33.23;;;5.90;;
19828;SDS011;10075;50.924;4.396;2023-01-05T06:17:57;35.53;;;6.83;;
19828;SDS011;10075;50.924;4.396;2023-01-05T06:20:24;32.37;;;6.00;;
19828;SDS011;10075;50.924;4.396;2023-01-05T06:22:51;33.43;;;7.03;;
19828;SDS011;10075;50.924;4.396;2023-01-05T06:25:20;34.33;;;6.20;;
19828;SDS011;10075;50.924;4.396;2023-01-05T06:27:47;37.53;;;6.67;;
19828;SDS011;10075;50.924;4.396;2023-01-05T06:30:14;31.13;;;6.90;;
19828;SDS011;10075;50.924;4.396;2023-01-05T06:32:41;35.30;;;6.87;;
19828;SDS011;10075;50.924;4.396;2023-01-05T06:35:09;40.27;;;6.60;;
19828;SDS011;10075;50.924;4.396;2023-01-05T06:37:36;36.03;;;6.67;;
19828;SDS011;10075;50.924;4.396;2023-01-05T06:40:03;38.50;;;6.33;;
19828;SDS011;10075;50.924;4.396;2023-01-05T06:42:32;31.90;;;6.53;;
19828;SDS011;10075;50.924;4.396;2023-01-05T06:44:59;38.37;;;7.17;;
19828;SDS011;10075;50.924;4.396;2023-01-05T06:47:26;38.43;;;6.93;;
19828;SDS011;10075;50.924;4.396;2023-01-05T06:49:53;29.50;;;5.77;;
19828;SDS011;10075;50.924;4.396;2023-01-05T06:52:20;33.63;;;5.97;;
19828;SDS011;10075;50.924;4.396;2023-01-05T06:54:47;26.93;;;5.50;;
19828;SDS011;10075;50.924;4.396;2023-01-05T06:57:14;27.17;;;7.17;;
19828;SDS011;10075;50.924;4.396;2023-01-05T06:59:43;30.63;;;5.43;;
19828;SDS011;10075;50.924;4.396;2023-01-05T07:02:11;44.57;;;7.47;;
19828;SDS011;10075;50.924;4.396;2023-01-05T07:04:39;32.83;;;5.57;;
19828;SDS011;10075;50.924;4.396;2023-01-05T07:07:07;34.87;;;6.13;;
19828;SDS011;10075;50.924;4.396;2023-01-05T07:09:35;30.27;;;5.33;;
19828;SDS011;10075;50.924;4.396;2023-01-05T07:12:02;29.47;;;6.07;;
19828;SDS011;10075;50.924;4.396;2023-01-05T07:14:29;36.97;;;6.33;;
19828;SDS011;10075;50.924;4.396;2023-01-05T07:16:57;38.80;;;6.63;;
19828;SDS011;10075;50.924;4.396;2023-01-05T07:19:24;36.97;;;6.43;;
19828;SDS011;10075;50.924;4.396;2023-01-05T07:21:51;30.50;;;5.90;;
19828;SDS011;10075;50.924;4.396;2023-01-05T07:24:18;31.20;;;6.10;;
19828;SDS011;10075;50.924;4.396;2023-01-05T07:26:45;31.90;;;6.23;;
19828;SDS011;10075;50.924;4.396;2023-01-05T07:29:12;30.63;;;6.57;;
19828;SDS011;10075;50.924;4.396;2023-01-05T07:31:39;24.67;;;4.93;;
19828;SDS011;10075;50.924;4.396;2023-01-05T07:34:08;31.63;;;6.13;;
19828;SDS011;10075;50.924;4.396;2023-01-05T07:36:35;35.00;;;7.10;;
19828;SDS011;10075;50.924;4.396;2023-01-05T07:39:02;30.60;;;6.07;;
19828;SDS011;10075;50.924;4.396;2023-01-05T07:41:29;27.73;;;5.90;;
19828;SDS011;10075;50.924;4.396;2023-01-05T07:43:57;31.93;;;5.77;;
19828;SDS011;10075;50.924;4.396;2023-01-05T07:46:24;30.43;;;6.50;;
19828;SDS011;10075;50.924;4.396;2023-01-05T07:48:50;37.87;;;6.03;;
19828;SDS011;10075;50.924;4.396;2023-01-05T07:51:19;32.10;;;5.40;;
19828;SDS011;10075;50.924;4.396;2023-01-05T07:53:46;38.83;;;6.70;;
19828;SDS011;10075;50.924;4.396;2023-01-05T07:56:13;30.13;;;6.73;;
19828;SDS011;10075;50.924;4.396;2023-01-05T07:58:42;26.17;;;5.93;;
19828;SDS011;10075;50.924;4.396;2023-01-05T08:01:10;26.60;;;5.37;;
19828;SDS011;10075;50.924;4.396;2023-01-05T08:03:38;36.00;;;6.13;;
19828;SDS011;10075;50.924;4.396;2023-01-05T08:06:06;31.00;;;6.77;;
19828;SDS011;10075;50.924;4.396;2023-01-05T08:08:36;31.43;;;6.23;;
19828;SDS011;10075;50.924;4.396;2023-01-05T08:11:03;38.87;;;5.67;;
19828;SDS011;10075;50.924;4.396;2023-01-05T08:13:31;38.90;;;6.70;;
19828;SDS011;10075;50.924;4.396;2023-01-05T08:16:16;36.17;;;6.17;;
19828;SDS011;10075;50.924;4.396;2023-01-05T08:18:43;36.83;;;6.20;;
19828;SDS011;10075;50.924;4.396;2023-01-05T08:21:10;43.47;;;7.17;;
19828;SDS011;10075;50.924;4.396;2023-01-05T08:23:39;30.07;;;5.40;;
19828;SDS011;10075;50.924;4.396;2023-01-05T08:26:06;33.37;;;5.70;;
19828;SDS011;10075;50.924;4.396;2023-01-05T08:28:35;27.60;;;5.47;;
19828;SDS011;10075;50.924;4.396;2023-01-05T08:31:04;33.93;;;6.50;;
19828;SDS011;10075;50.924;4.396;2023-01-05T08:33:32;35.07;;;5.47;;
19828;SDS011;10075;50.924;4.396;2023-01-05T08:36:00;31.03;;;7.20;;
19828;SDS011;10075;50.924;4.396;2023-01-05T08:38:27;33.30;;;6.13;;
19828;SDS011;10075;50.924;4.396;2023-01-05T08:40:57;32.47;;;5.33;;
19828;SDS011;10075;50.924;4.396;2023-01-05T08:43:25;25.87;;;6.10;;
19828;SDS011;10075;50.924;4.396;2023-01-05T08:45:53;30.47;;;5.80;;
19828;SDS011;10075;50.924;4.396;2023-01-05T08:48:20;30.50;;;6.13;;
19828;SDS011;10075;50.924;4.396;2023-01-05T08:50:47;31.07;;;6.03;;
19828;SDS011;10075;50.924;4.396;2023-01-05T08:53:14;28.73;;;5.13;;
19828;SDS011;10075;50.924;4.396;2023-01-05T08:55:42;34.80;;;6.60;;
19828;SDS011;10075;50.924;4.396;2023-01-05T08:58:10;33.07;;;6.40;;
19828;SDS011;10075;50.924;4.396;2023-01-05T09:00:37;28.10;;;5.93;;
19828;SDS011;10075;50.924;4.396;2023-01-05T09:03:04;34.43;;;5.97;;
19828;SDS011;10075;50.924;4.396;2023-01-05T09:05:32;35.03;;;6.23;;
19828;SDS011;10075;50.924;4.396;2023-01-05T09:07:59;40.73;;;6.73;;
19828;SDS011;10075;50.924;4.396;2023-01-05T09:10:26;36.17;;;6.70;;
19828;SDS011;10075;50.924;4.396;2023-01-05T09:12:53;28.27;;;5.47;;
19828;SDS011;10075;50.924;4.396;2023-01-05T09:15:21;43.07;;;6.60;;
19828;SDS011;10075;50.924;4.396;2023-01-05T09:17:48;33.27;;;6.47;;
19828;SDS011;10075;50.924;4.396;2023-01-05T09:20:15;35.33;;;6.70;;
19828;SDS011;10075;50.924;4.396;2023-01-05T09:22:42;29.43;;;6.00;;
19828;SDS011;10075;50.924;4.396;2023-01-05T09:25:10;37.97;;;6.47;;
19828;SDS011;10075;50.924;4.396;2023-01-05T09:27:37;35.43;;;6.23;;
19828;SDS011;10075;50.924;4.396;2023-01-05T09:30:05;30.33;;;6.30;;
19828;SDS011;10075;50.924;4.396;2023-01-05T09:32:36;39.87;;;7.80;;
19828;SDS011;10075;50.924;4.396;2023-01-05T09:35:03;35.90;;;6.77;;
19828;SDS011;10075;50.924;4.396;2023-01-05T09:37:31;34.20;;;6.40;;
19828;SDS011;10075;50.924;4.396;2023-01-05T09:39:58;33.63;;;6.50;;
19828;SDS011;10075;50.924;4.396;2023-01-05T09:42:25;34.13;;;5.73;;
19828;SDS011;10075;50.924;4.396;2023-01-05T09:44:57;29.70;;;5.87;;
19828;SDS011;10075;50.924;4.396;2023-01-05T09:47:30;34.50;;;5.97;;
19828;SDS011;10075;50.924;4.396;2023-01-05T09:50:03;43.10;;;7.40;;
19828;SDS011;10075;50.924;4.396;2023-01-05T09:52:31;30.63;;;5.87;;
19828;SDS011;10075;50.924;4.396;2023-01-05T09:55:01;32.40;;;6.80;;
19828;SDS011;10075;50.924;4.396;2023-01-05T09:57:29;35.70;;;6.77;;
19828;SDS011;10075;50.924;4.396;2023-01-05T09:59:58;33.27;;;6.07;;
19828;SDS011;10075;50.924;4.396;2023-01-05T10:02:29;23.70;;;5.27;;
19828;SDS011;10075;50.924;4.396;2023-01-05T10:05:00;26.73;;;5.73;;
19828;SDS011;10075;50.924;4.396;2023-01-05T10:07:32;29.73;;;5.60;;
19828;SDS011;10075;50.924;4.396;2023-01-05T10:10:07;30.93;;;5.60;;
19828;SDS011;10075;50.924;4.396;2023-01-05T10:12:43;30.93;;;6.90;;
19828;SDS011;10075;50.924;4.396;2023-01-05T10:15:35;32.65;;;6.32;;
19828;SDS011;10075;50.924;4.396;2023-01-05T10:18:09;44.40;;;7.37;;
19828;SDS011;10075;50.924;4.396;2023-01-05T10:20:47;29.77;;;5.80;;
19828;SDS011;10075;50.924;4.396;2023-01-05T10:23:32;25.83;;;6.27;;
19828;SDS011;10075;50.924;4.396;2023-01-05T10:26:11;28.53;;;5.47;;
19828;SDS011;10075;50.924;4.396;2023-01-05T10:28:44;28.50;;;6.03;;
19828;SDS011;10075;50.924;4.396;2023-01-05T10:31:21;32.03;;;6.03;;
19828;SDS011;10075;50.924;4.396;2023-01-05T10:33:50;31.00;;;6.30;;
19828;SDS011;10075;50.924;4.396;2023-01-05T10:36:23;31.90;;;6.07;;
19828;SDS011;10075;50.924;4.396;2023-01-05T10:39:14;32.70;;;6.33;;
19828;SDS011;10075;50.924;4.396;2023-01-05T10:41:50;33.40;;;5.63;;
19828;SDS011;10075;50.924;4.396;2023-01-05T10:44:34;34.17;;;5.77;;
19828;SDS011;10075;50.924;4.396;2023-01-05T10:47:18;35.07;;;6.00;;
19828;SDS011;10075;50.924;4.396;2023-01-05T10:49:47;36.10;;;6.03;;
19828;SDS011;10075;50.924;4.396;2023-01-05T10:52:17;23.93;;;5.27;;
19828;SDS011;10075;50.924;4.396;2023-01-05T10:54:47;30.77;;;5.77;;
19828;SDS011;10075;50.924;4.396;2023-01-05T11:00:05;30.87;;;5.53;;
19828;SDS011;10075;50.924;4.396;2023-01-05T11:02:40;30.40;;;6.27;;
19828;SDS011;10075;50.924;4.396;2023-01-05T11:08:00;30.43;;;6.10;;
19828;SDS011;10075;50.924;4.396;2023-01-05T11:10:30;27.63;;;6.60;;
19828;SDS011;10075;50.924;4.396;2023-01-05T11:13:02;35.33;;;6.53;;
19828;SDS011;10075;50.924;4.396;2023-01-05T11:15:31;31.75;;;6.05;;
19828;SDS011;10075;50.924;4.396;2023-01-05T11:18:06;33.77;;;6.77;;
19828;SDS011;10075;50.924;4.396;2023-01-05T11:20:50;30.48;;;5.78;;
19828;SDS011;10075;50.924;4.396;2023-01-05T11:23:34;26.95;;;6.00;;
19828;SDS011;10075;50.924;4.396;2023-01-05T11:28:58;29.02;;;6.60;;
19828;SDS011;10075;50.924;4.396;2023-01-05T11:31:31;32.47;;;6.03;;
19828;SDS011;10075;50.924;4.396;2023-01-05T11:34:03;34.20;;;5.97;;
19828;SDS011;10075;50.924;4.396;2023-01-05T11:36:34;31.30;;;6.07;;
19828;SDS011;10075;50.924;4.396;2023-01-05T11:39:04;30.77;;;6.28;;
19828;SDS011;10075;50.924;4.396;2023-01-05T11:41:32;34.08;;;7.15;;
19828;SDS011;10075;50.924;4.396;2023-01-05T11:43:59;32.45;;;6.25;;
19828;SDS011;10075;50.924;4.396;2023-01-05T11:46:38;28.42;;;6.78;;
19828;SDS011;10075;50.924;4.396;2023-01-05T11:49:07;30.03;;;6.07;;
19828;SDS011;10075;50.924;4.396;2023-01-05T11:51:35;32.07;;;6.70;;
19828;SDS011;10075;50.924;4.396;2023-01-05T11:54:31;37.08;;;6.13;;
19828;SDS011;10075;50.924;4.396;2023-01-05T11:57:14;31.35;;;5.78;;
19828;SDS011;10075;50.924;4.396;2023-01-05T11:59:43;33.28;;;6.75;;
19828;SDS011;10075;50.924;4.396;2023-01-05T12:02:17;31.10;;;6.82;;
19828;SDS011;10075;50.924;4.396;2023-01-05T12:05:11;31.45;;;6.30;;
19828;SDS011;10075;50.924;4.396;2023-01-05T12:07:50;28.65;;;5.85;;
19828;SDS011;10075;50.924;4.396;2023-01-05T12:10:26;28.70;;;5.43;;
19828;SDS011;10075;50.924;4.396;2023-01-05T12:13:34;33.85;;;5.85;;
19828;SDS011;10075;50.924;4.396;2023-01-05T12:16:37;32.07;;;5.93;;
19828;SDS011;10075;50.924;4.396;2023-01-05T12:19:28;36.47;;;7.22;;
19828;SDS011;10075;50.924;4.396;2023-01-05T12:25:38;36.15;;;6.70;;
19828;SDS011;10075;50.924;4.396;2023-01-05T12:28:19;29.05;;;6.03;;
19828;SDS011;10075;50.924;4.396;2023-01-05T12:30:57;27.60;;;5.40;;
19828;SDS011;10075;50.924;4.396;2023-01-05T12:33:33;31.05;;;6.25;;
19828;SDS011;10075;50.924;4.396;2023-01-05T12:36:23;26.80;;;6.18;;
19828;SDS011;10075;50.924;4.396;2023-01-05T12:39:03;33.58;;;6.57;;
19828;SDS011;10075;50.924;4.396;2023-01-05T12:42:01;29.60;;;5.80;;
19828;SDS011;10075;50.924;4.396;2023-01-05T12:44:55;35.38;;;6.50;;
19828;SDS011;10075;50.924;4.396;2023-01-05T12:47:50;32.42;;;6.78;;
19828;SDS011;10075;50.924;4.396;2023-01-05T12:50:24;34.40;;;7.13;;
19828;SDS011;10075;50.924;4.396;2023-01-05T12:52:57;32.03;;;6.63;;
19828;SDS011;10075;50.924;4.396;2023-01-05T12:55:32;35.08;;;7.47;;
19828;SDS011;10075;50.924;4.396;2023-01-05T12:58:08;36.15;;;6.05;;
19828;SDS011;10075;50.924;4.396;2023-01-05T13:00:39;29.58;;;6.53;;
19828;SDS011;10075;50.924;4.396;2023-01-05T13:03:13;35.33;;;7.78;;
19828;SDS011;10075;50.924;4.396;2023-01-05T13:05:45;45.53;;;7.65;;
19828;SDS011;10075;50.924;4.396;2023-01-05T13:08:19;34.90;;;6.73;;
19828;SDS011;10075;50.924;4.396;2023-01-05T13:10:50;35.17;;;7.53;;
19828;SDS011;10075;50.924;4.396;2023-01-05T13:13:26;41.78;;;7.43;;
19828;SDS011;10075;50.924;4.396;2023-01-05T13:15:57;35.45;;;7.47;;
19828;SDS011;10075;50.924;4.396;2023-01-05T13:18:30;45.78;;;7.65;;
19828;SDS011;10075;50.924;4.396;2023-01-05T13:21:01;41.25;;;7.80;;
19828;SDS011;10075;50.924;4.396;2023-01-05T13:23:30;35.80;;;6.90;;
19828;SDS011;10075;50.924;4.396;2023-01-05T13:26:00;41.47;;;7.82;;
19828;SDS011;10075;50.924;4.396;2023-01-05T13:28:33;36.08;;;8.15;;
19828;SDS011;10075;50.924;4.396;2023-01-05T13:34:15;58.30;;;9.20;;
19828;SDS011;10075;50.924;4.396;2023-01-05T13:37:14;41.15;;;7.90;;
19828;SDS011;10075;50.924;4.396;2023-01-05T13:43:17;42.58;;;8.80;;
19828;SDS011;10075;50.924;4.396;2023-01-05T13:52:16;29.13;;;6.45;;
19828;SDS011;10075;50.924;4.396;2023-01-05T13:54:51;27.27;;;5.93;;
19828;SDS011;10075;50.924;4.396;2023-01-05T13:57:26;32.75;;;6.72;;
19828;SDS011;10075;50.924;4.396;2023-01-05T13:59:56;29.02;;;6.75;;
19828;SDS011;10075;50.924;4.396;2023-01-05T14:02:30;30.92;;;6.75;;
19828;SDS011;10075;50.924;4.396;2023-01-05T14:05:02;21.80;;;5.50;;
19828;SDS011;10075;50.924;4.396;2023-01-05T14:07:39;19.02;;;5.20;;
19828;SDS011;10075;50.924;4.396;2023-01-05T14:10:15;29.77;;;5.70;;
19828;SDS011;10075;50.924;4.396;2023-01-05T14:12:47;16.88;;;5.00;;
19828;SDS011;10075;50.924;4.396;2023-01-05T14:15:34;12.05;;;4.07;;
19828;SDS011;10075;50.924;4.396;2023-01-05T14:18:05;12.43;;;4.07;;
19828;SDS011;10075;50.924;4.396;2023-01-05T14:20:34;15.27;;;4.40;;
19828;SDS011;10075;50.924;4.396;2023-01-05T14:26:10;13.80;;;3.93;;
19828;SDS011;10075;50.924;4.396;2023-01-05T14:34:25;13.05;;;4.07;;
19828;SDS011;10075;50.924;4.396;2023-01-05T14:37:00;10.37;;;3.50;;
19828;SDS011;10075;50.924;4.396;2023-01-05T14:39:30;14.52;;;3.90;;
19828;SDS011;10075;50.924;4.396;2023-01-05T14:42:07;12.10;;;3.70;;
19828;SDS011;10075;50.924;4.396;2023-01-05T14:44:46;7.93;;;3.58;;
19828;SDS011;10075;50.924;4.396;2023-01-05T14:47:16;10.80;;;3.70;;
19828;SDS011;10075;50.924;4.396;2023-01-05T14:49:59;8.70;;;3.58;;
19828;SDS011;10075;50.924;4.396;2023-01-05T14:55:20;12.07;;;4.32;;
19828;SDS011;10075;50.924;4.396;2023-01-05T14:57:50;14.75;;;4.68;;
19828;SDS011;10075;50.924;4.396;2023-01-05T15:00:20;11.77;;;4.07;;
19828;SDS011;10075;50.924;4.396;2023-01-05T15:02:59;8.75;;;3.47;;
19828;SDS011;10075;50.924;4.396;2023-01-05T15:05:48;8.43;;;3.45;;
19828;SDS011;10075;50.924;4.396;2023-01-05T15:08:25;15.02;;;5.75;;
19828;SDS011;10075;50.924;4.396;2023-01-05T15:14:04;13.30;;;5.28;;
19828;SDS011;10075;50.924;4.396;2023-01-05T15:23:28;8.23;;;4.00;;
19828;SDS011;10075;50.924;4.396;2023-01-05T15:26:11;8.60;;;3.90;;
19828;SDS011;10075;50.924;4.396;2023-01-05T15:31:56;8.63;;;4.43;;
19828;SDS011;10075;50.924;4.396;2023-01-05T15:34:28;17.20;;;4.53;;
19828;SDS011;10075;50.924;4.396;2023-01-05T15:37:03;9.70;;;3.97;;
19828;SDS011;10075;50.924;4.396;2023-01-05T15:39:45;13.02;;;5.50;;
19828;SDS011;10075;50.924;4.396;2023-01-05T15:42:14;9.38;;;4.47;;
19828;SDS011;10075;50.924;4.396;2023-01-05T15:44:45;10.25;;;5.25;;
19828;SDS011;10075;50.924;4.396;2023-01-05T15:47:15;8.87;;;4.97;;
19828;SDS011;10075;50.924;4.396;2023-01-05T15:49:44;13.37;;;5.20;;
19828;SDS011;10075;50.924;4.396;2023-01-05T15:52:16;10.38;;;5.68;;
19828;SDS011;10075;50.924;4.396;2023-01-05T15:54:58;9.43;;;5.23;;
19828;SDS011;10075;50.924;4.396;2023-01-05T15:57:27;12.17;;;6.17;;
19828;SDS011;10075;50.924;4.396;2023-01-05T15:59:54;10.90;;;6.35;;